createdAt,value
2022-11-16T00:00:06.195Z,48.7
2022-11-16T00:01:04.161Z,48.7
2022-11-16T00:02:04.189Z,48.7
2022-11-16T00:03:47.478Z,48.7
2022-11-16T00:04:04.110Z,49.4
2022-11-16T00:05:04.146Z,48.8
2022-11-16T00:06:04.104Z,48.8
2022-11-16T00:07:04.149Z,48.7
2022-11-16T00:08:04.141Z,48.8
2022-11-16T00:09:04.111Z,48.7
2022-11-16T00:10:04.118Z,48.7
2022-11-16T00:11:04.106Z,48.8
2022-11-16T00:12:04.108Z,48.8
2022-11-16T00:13:04.106Z,48.8
2022-11-16T00:14:04.226Z,48.8
2022-11-16T00:15:04.134Z,48.8
2022-11-16T00:16:04.102Z,48.8
2022-11-16T00:17:04.110Z,48.8
2022-11-16T00:18:04.110Z,48.8
2022-11-16T00:19:04.116Z,48.9
2022-11-16T00:20:04.141Z,48.9
2022-11-16T00:21:04.120Z,48.8
2022-11-16T00:22:04.115Z,48.9
2022-11-16T00:23:04.117Z,48.9
2022-11-16T00:24:04.131Z,48.9
2022-11-16T00:25:04.117Z,48.9
2022-11-16T00:26:04.136Z,48.9
2022-11-16T00:27:04.132Z,48.9
2022-11-16T00:28:04.124Z,48.9
2022-11-16T00:29:04.127Z,48.9
2022-11-16T00:30:04.142Z,49.0
2022-11-16T00:31:04.108Z,48.9
2022-11-16T00:32:04.120Z,49.0
2022-11-16T00:33:04.117Z,48.9
2022-11-16T00:34:04.209Z,49.0
2022-11-16T00:35:04.611Z,49.0
2022-11-16T00:36:04.174Z,49.0
2022-11-16T00:37:04.120Z,49.0
2022-11-16T00:38:04.110Z,49.0
2022-11-16T00:39:04.306Z,49.1
2022-11-16T00:40:04.204Z,49.1
2022-11-16T00:41:04.117Z,49.1
2022-11-16T00:42:04.247Z,49.1
2022-11-16T00:43:04.926Z,49.2
2022-11-16T00:44:04.117Z,49.2
2022-11-16T00:45:04.149Z,49.2
2022-11-16T00:46:04.131Z,49.2
2022-11-16T00:47:04.111Z,49.3
2022-11-16T00:48:04.151Z,49.3
2022-11-16T00:49:04.116Z,49.3
2022-11-16T00:50:04.118Z,49.3
2022-11-16T00:51:04.129Z,49.3
2022-11-16T00:52:04.128Z,49.3
2022-11-16T00:53:04.125Z,49.4
2022-11-16T00:54:04.140Z,49.4
2022-11-16T00:55:04.129Z,49.4
2022-11-16T00:56:04.115Z,49.4
2022-11-16T00:57:04.120Z,49.4
2022-11-16T00:58:04.126Z,49.4
2022-11-16T00:59:04.123Z,49.5
2022-11-16T01:00:04.157Z,49.5
2022-11-16T01:01:04.212Z,49.5
2022-11-16T01:02:04.120Z,49.5
2022-11-16T01:04:56.296Z,50.9
2022-11-16T01:05:04.071Z,50.6
2022-11-16T01:06:04.045Z,49.8
2022-11-16T01:07:04.053Z,49.7
2022-11-16T01:08:04.023Z,49.7
2022-11-16T01:09:04.022Z,49.7
2022-11-16T01:10:04.022Z,49.7
2022-11-16T01:11:04.112Z,49.7
2022-11-16T01:12:04.058Z,49.7
2022-11-16T01:13:04.017Z,49.7
2022-11-16T01:14:04.024Z,49.7
2022-11-16T01:15:04.023Z,49.7
2022-11-16T01:16:04.030Z,49.7
2022-11-16T01:17:04.025Z,49.7
2022-11-16T01:18:04.069Z,49.7
2022-11-16T01:19:04.039Z,49.8
2022-11-16T01:20:04.021Z,49.7
2022-11-16T01:21:04.029Z,49.7
2022-11-16T01:22:04.030Z,49.7
2022-11-16T01:23:04.021Z,49.7
2022-11-16T01:24:04.091Z,49.7
2022-11-16T01:25:04.026Z,49.7
2022-11-16T01:26:04.047Z,49.7
2022-11-16T01:27:04.025Z,49.7
2022-11-16T01:28:04.041Z,49.7
2022-11-16T01:29:04.028Z,49.7
2022-11-16T01:30:04.079Z,49.7
2022-11-16T01:31:05.075Z,49.7
2022-11-16T01:32:04.117Z,49.6
2022-11-16T01:33:04.026Z,49.6
2022-11-16T01:34:04.035Z,49.6
2022-11-16T01:35:04.033Z,49.7
2022-11-16T01:36:04.060Z,49.7
2022-11-16T01:37:04.029Z,49.7
2022-11-16T01:38:04.035Z,49.7
2022-11-16T01:39:04.035Z,49.7
2022-11-16T01:40:04.032Z,49.7
2022-11-16T01:41:04.032Z,49.7
2022-11-16T01:42:04.063Z,49.7
2022-11-16T01:43:04.025Z,49.7
2022-11-16T01:44:04.035Z,49.6
2022-11-16T01:45:04.043Z,49.6
2022-11-16T01:46:04.035Z,49.6
2022-11-16T01:47:04.038Z,49.6
2022-11-16T01:48:04.077Z,49.7
2022-11-16T01:49:04.037Z,49.7
2022-11-16T01:50:04.027Z,49.7
2022-11-16T01:51:04.034Z,49.7
2022-11-16T01:52:04.030Z,49.7
2022-11-16T01:53:04.037Z,49.7
2022-11-16T01:54:04.063Z,49.7
2022-11-16T01:55:04.039Z,49.7
2022-11-16T01:56:04.036Z,49.7
2022-11-16T01:57:04.049Z,49.7
2022-11-16T01:58:04.041Z,49.7
2022-11-16T01:59:04.031Z,49.7
2022-11-16T02:00:04.058Z,49.7
2022-11-16T02:01:04.123Z,49.7
2022-11-16T02:02:04.030Z,49.7
2022-11-16T02:03:04.043Z,49.7
2022-11-16T02:04:04.048Z,49.7
2022-11-16T02:05:04.038Z,49.7
2022-11-16T02:06:04.074Z,49.7
2022-11-16T02:07:04.094Z,49.7
2022-11-16T02:08:04.035Z,49.7
2022-11-16T02:09:04.046Z,49.8
2022-11-16T02:10:04.059Z,49.8
2022-11-16T02:11:04.318Z,49.8
2022-11-16T02:12:04.064Z,49.9
2022-11-16T02:13:04.044Z,50.0
2022-11-16T02:14:04.032Z,49.9
2022-11-16T02:15:04.044Z,49.9
2022-11-16T02:16:04.288Z,50.0
2022-11-16T02:17:04.052Z,50.0
2022-11-16T02:19:36.026Z,51.4
2022-11-16T02:20:03.691Z,50.5
2022-11-16T02:21:03.659Z,50.3
2022-11-16T02:22:03.642Z,50.2
2022-11-16T02:23:03.648Z,50.2
2022-11-16T02:24:03.707Z,50.2
2022-11-16T02:25:03.659Z,50.2
2022-11-16T02:26:03.679Z,50.2
2022-11-16T02:27:03.655Z,50.2
2022-11-16T02:28:03.645Z,50.2
2022-11-16T02:29:03.660Z,50.2
2022-11-16T02:30:03.722Z,50.2
2022-11-16T02:31:03.675Z,50.2
2022-11-16T02:32:03.671Z,50.3
2022-11-16T02:33:03.660Z,50.3
2022-11-16T02:34:03.655Z,50.3
2022-11-16T02:35:03.659Z,50.3
2022-11-16T02:36:03.680Z,50.4
2022-11-16T02:37:03.689Z,50.3
2022-11-16T02:38:03.662Z,50.4
2022-11-16T02:39:03.677Z,50.4
2022-11-16T02:40:03.663Z,50.4
2022-11-16T02:41:03.660Z,50.4
2022-11-16T02:42:03.788Z,50.4
2022-11-16T02:43:03.665Z,50.4
2022-11-16T02:44:03.647Z,50.4
2022-11-16T02:45:03.664Z,50.4
2022-11-16T02:46:03.658Z,50.4
2022-11-16T02:47:03.672Z,50.4
2022-11-16T02:48:03.702Z,50.4
2022-11-16T02:49:03.659Z,50.4
2022-11-16T02:50:03.650Z,50.4
2022-11-16T02:51:03.673Z,50.4
2022-11-16T02:52:03.732Z,50.4
2022-11-16T02:53:03.698Z,50.4
2022-11-16T02:54:03.717Z,50.4
2022-11-16T02:55:03.689Z,50.4
2022-11-16T02:56:03.661Z,50.4
2022-11-16T02:57:03.662Z,50.5
2022-11-16T02:58:03.675Z,50.5
2022-11-16T02:59:03.671Z,50.5
2022-11-16T03:00:03.694Z,50.5
2022-11-16T03:01:03.708Z,50.5
2022-11-16T03:02:03.671Z,50.5
2022-11-16T03:03:03.675Z,50.5
2022-11-16T03:04:03.668Z,50.5
2022-11-16T03:05:03.689Z,50.5
2022-11-16T03:06:03.698Z,50.6
2022-11-16T03:07:03.748Z,50.6
2022-11-16T03:08:10.390Z,50.7
2022-11-16T03:09:21.963Z,51.3
2022-11-16T03:10:04.748Z,50.7
2022-11-16T03:11:12.264Z,50.9
2022-11-16T03:12:04.210Z,50.7
2022-11-16T03:13:04.136Z,50.7
2022-11-16T03:14:04.145Z,50.7
2022-11-16T03:15:04.130Z,50.7
2022-11-16T03:16:04.141Z,50.7
2022-11-16T03:17:04.170Z,50.8
2022-11-16T03:18:04.144Z,50.7
2022-11-16T03:19:04.152Z,50.7
2022-11-16T03:20:04.149Z,50.8
2022-11-16T03:21:04.135Z,50.8
2022-11-16T03:22:04.163Z,50.8
2022-11-16T03:23:04.171Z,50.8
2022-11-16T03:24:04.135Z,50.8
2022-11-16T03:25:04.135Z,50.8
2022-11-16T03:26:04.154Z,50.8
2022-11-16T03:27:04.385Z,50.9
2022-11-16T03:28:04.154Z,50.9
2022-11-16T03:29:04.172Z,50.9
2022-11-16T03:30:04.159Z,50.9
2022-11-16T03:31:04.143Z,50.9
2022-11-16T03:32:04.151Z,50.9
2022-11-16T03:33:04.150Z,50.9
2022-11-16T03:34:04.156Z,50.9
2022-11-16T03:35:04.167Z,51.0
2022-11-16T03:36:04.141Z,51.0
2022-11-16T03:37:04.143Z,51.0
2022-11-16T03:38:04.144Z,51.0
2022-11-16T03:39:04.152Z,51.1
2022-11-16T03:40:04.146Z,51.1
2022-11-16T03:41:04.174Z,51.1
2022-11-16T03:42:04.179Z,51.1
2022-11-16T03:43:04.151Z,51.1
2022-11-16T03:44:04.187Z,51.1
2022-11-16T03:45:04.151Z,51.1
2022-11-16T03:46:04.155Z,51.1
2022-11-16T03:47:04.187Z,51.1
2022-11-16T03:48:04.155Z,51.2
2022-11-16T03:49:04.155Z,51.2
2022-11-16T03:50:04.167Z,51.2
2022-11-16T03:51:04.140Z,51.2
2022-11-16T03:52:04.146Z,51.3
2022-11-16T03:53:04.147Z,51.2
2022-11-16T03:54:04.152Z,51.3
2022-11-16T03:55:04.158Z,51.3
2022-11-16T03:56:04.170Z,51.3
2022-11-16T03:57:04.151Z,51.3
2022-11-16T03:58:04.152Z,51.3
2022-11-16T03:59:04.152Z,51.3
2022-11-16T04:00:05.086Z,51.3
2022-11-16T04:01:04.233Z,51.4
2022-11-16T04:02:04.148Z,51.4
2022-11-16T04:03:04.157Z,51.4
2022-11-16T04:04:04.155Z,51.4
2022-11-16T04:05:04.164Z,51.4
2022-11-16T04:06:04.191Z,51.5
2022-11-16T04:07:04.225Z,51.4
2022-11-16T04:08:04.160Z,51.5
2022-11-16T04:09:04.147Z,51.5
2022-11-16T04:10:04.177Z,51.5
2022-11-16T04:11:04.306Z,51.5
2022-11-16T04:12:04.313Z,51.6
2022-11-16T04:13:04.208Z,51.5
2022-11-16T04:14:07.972Z,51.5
2022-11-16T04:15:04.224Z,51.6
2022-11-16T04:16:04.278Z,51.6
2022-11-16T04:17:04.510Z,51.6
2022-11-16T04:18:04.269Z,51.6
2022-11-16T04:19:04.572Z,51.6
2022-11-16T04:20:04.282Z,51.6
2022-11-16T04:21:04.226Z,51.6
2022-11-16T04:22:04.206Z,51.6
2022-11-16T04:23:59.028Z,51.7
2022-11-16T04:24:04.558Z,53.8
2022-11-16T04:25:04.300Z,51.9
2022-11-16T04:26:04.249Z,51.8
2022-11-16T04:27:05.153Z,51.8
2022-11-16T04:28:04.247Z,51.8
2022-11-16T04:29:04.216Z,51.8
2022-11-16T04:30:04.329Z,51.8
2022-11-16T04:31:04.233Z,51.8
2022-11-16T04:32:04.277Z,51.8
2022-11-16T04:33:04.248Z,51.9
2022-11-16T04:34:04.253Z,51.9
2022-11-16T04:35:04.230Z,51.8
2022-11-16T04:36:04.260Z,51.9
2022-11-16T04:37:04.241Z,51.9
2022-11-16T04:38:04.522Z,51.9
2022-11-16T04:39:04.229Z,51.9
2022-11-16T04:40:04.237Z,51.9
2022-11-16T04:41:04.158Z,51.9
2022-11-16T04:42:04.280Z,51.9
2022-11-16T04:43:04.253Z,51.9
2022-11-16T04:44:04.237Z,51.9
2022-11-16T04:45:04.283Z,52.0
2022-11-16T04:46:04.254Z,51.9
2022-11-16T04:47:04.506Z,52.0
2022-11-16T04:48:04.199Z,52.0
2022-11-16T04:49:04.210Z,52.0
2022-11-16T04:50:04.331Z,52.0
2022-11-16T04:51:04.284Z,52.0
2022-11-16T04:52:05.046Z,52.0
2022-11-16T04:53:04.437Z,51.9
2022-11-16T04:54:04.182Z,51.8
2022-11-16T04:55:04.213Z,51.7
2022-11-16T04:56:04.373Z,51.6
2022-11-16T04:57:04.174Z,51.4
2022-11-16T04:58:04.242Z,51.3
2022-11-16T04:59:04.220Z,51.2
2022-11-16T05:00:04.271Z,51.2
2022-11-16T05:01:12.036Z,51.3
2022-11-16T05:02:04.679Z,51.1
2022-11-16T05:03:04.585Z,51.0
2022-11-16T05:04:04.686Z,51.0
2022-11-16T05:05:04.608Z,50.9
2022-11-16T05:06:04.626Z,50.9
2022-11-16T05:07:04.748Z,50.8
2022-11-16T05:08:04.666Z,50.7
2022-11-16T05:09:04.652Z,50.7
2022-11-16T05:10:04.646Z,50.6
2022-11-16T05:11:04.668Z,50.5
2022-11-16T05:12:04.703Z,50.3
2022-11-16T05:13:04.646Z,50.3
2022-11-16T05:14:04.712Z,50.3
2022-11-16T05:15:04.636Z,50.2
2022-11-16T05:16:04.675Z,50.1
2022-11-16T05:17:04.646Z,50.0
2022-11-16T05:18:05.624Z,49.9
2022-11-16T05:19:04.766Z,49.9
2022-11-16T05:20:04.672Z,49.9
2022-11-16T05:21:04.650Z,49.8
2022-11-16T05:22:04.641Z,49.6
2022-11-16T05:23:04.791Z,49.6
2022-11-16T05:24:04.576Z,49.5
2022-11-16T05:25:04.596Z,49.5
2022-11-16T05:26:04.575Z,49.4
2022-11-16T05:27:04.565Z,49.4
2022-11-16T05:28:04.566Z,49.3
2022-11-16T05:29:04.568Z,49.3
2022-11-16T05:30:04.567Z,49.2
2022-11-16T05:31:04.617Z,49.2
2022-11-16T05:32:04.585Z,49.2
2022-11-16T05:33:04.562Z,49.1
2022-11-16T05:34:04.567Z,49.1
2022-11-16T05:35:04.571Z,49.1
2022-11-16T05:36:04.570Z,49.0
2022-11-16T05:37:04.584Z,48.9
2022-11-16T05:38:04.577Z,48.9
2022-11-16T05:39:04.578Z,48.8
2022-11-16T05:40:04.609Z,48.8
2022-11-16T05:41:04.594Z,48.8
2022-11-16T05:42:04.580Z,48.7
2022-11-16T05:43:04.649Z,48.7
2022-11-16T05:44:04.730Z,48.6
2022-11-16T05:45:04.832Z,48.6
2022-11-16T05:46:04.613Z,48.6
2022-11-16T05:47:04.579Z,48.5
2022-11-16T05:48:04.571Z,48.5
2022-11-16T05:49:04.594Z,48.5
2022-11-16T05:50:04.594Z,48.4
2022-11-16T05:51:04.615Z,48.4
2022-11-16T05:52:04.646Z,48.5
2022-11-16T05:53:04.576Z,48.6
2022-11-16T05:54:04.596Z,48.6
2022-11-16T05:55:04.590Z,48.5
2022-11-16T05:56:04.608Z,48.4
2022-11-16T05:57:04.633Z,48.5
2022-11-16T05:58:04.605Z,48.3
2022-11-16T05:59:04.579Z,48.3
2022-11-16T06:00:04.610Z,48.2
2022-11-16T06:01:04.577Z,48.2
2022-11-16T06:02:04.585Z,48.2
2022-11-16T06:03:04.635Z,48.2
2022-11-16T06:04:04.584Z,48.3
2022-11-16T06:06:02.571Z,48.3
2022-11-16T06:06:06.579Z,50.1
2022-11-16T06:07:04.619Z,48.4
2022-11-16T06:08:04.598Z,48.2
2022-11-16T06:09:04.575Z,48.3
2022-11-16T06:10:04.587Z,48.3
2022-11-16T06:11:04.588Z,48.2
2022-11-16T06:12:04.625Z,48.2
2022-11-16T06:13:04.594Z,48.1
2022-11-16T06:14:04.598Z,48.3
2022-11-16T06:15:04.577Z,48.2
2022-11-16T06:16:04.593Z,48.2
2022-11-16T06:17:04.585Z,48.2
2022-11-16T06:18:04.627Z,48.2
2022-11-16T06:19:04.598Z,48.2
2022-11-16T06:20:04.590Z,48.2
2022-11-16T06:21:04.599Z,48.3
2022-11-16T06:22:04.589Z,48.2
2022-11-16T06:23:04.584Z,48.2
2022-11-16T06:24:04.625Z,48.2
2022-11-16T06:25:04.579Z,48.2
2022-11-16T06:26:04.597Z,48.2
2022-11-16T06:27:04.581Z,48.2
2022-11-16T06:28:07.890Z,48.2
2022-11-16T06:29:04.576Z,48.2
2022-11-16T06:30:04.621Z,48.3
2022-11-16T06:31:04.580Z,48.3
2022-11-16T06:32:04.583Z,48.3
2022-11-16T06:33:04.592Z,48.3
2022-11-16T06:34:04.597Z,48.3
2022-11-16T06:35:04.596Z,48.3
2022-11-16T06:36:04.609Z,48.4
2022-11-16T06:37:04.584Z,48.4
2022-11-16T06:38:04.588Z,48.4
2022-11-16T06:39:04.614Z,48.5
2022-11-16T06:40:04.596Z,48.5
2022-11-16T06:41:04.596Z,48.5
2022-11-16T06:42:04.619Z,48.5
2022-11-16T06:43:04.593Z,48.4
2022-11-16T06:44:04.607Z,48.4
2022-11-16T06:45:04.603Z,48.4
2022-11-16T06:46:04.609Z,48.5
2022-11-16T06:47:04.597Z,48.5
2022-11-16T06:48:04.637Z,48.5
2022-11-16T06:49:04.596Z,48.5
2022-11-16T06:50:04.612Z,48.5
2022-11-16T06:51:04.658Z,48.4
2022-11-16T06:52:04.618Z,48.5
2022-11-16T06:53:04.595Z,48.4
2022-11-16T06:54:04.626Z,48.4
2022-11-16T06:55:04.612Z,48.4
2022-11-16T06:56:04.748Z,48.3
2022-11-16T06:57:04.594Z,48.3
2022-11-16T06:58:04.619Z,48.3
2022-11-16T06:59:04.594Z,48.2
2022-11-16T07:00:04.645Z,48.2
2022-11-16T07:01:04.591Z,48.2
2022-11-16T07:02:04.660Z,48.1
2022-11-16T07:03:04.590Z,48.1
2022-11-16T07:04:04.597Z,48.1
2022-11-16T07:05:04.602Z,48.1
2022-11-16T07:06:04.632Z,48.0
2022-11-16T07:07:04.634Z,48.0
2022-11-16T07:08:04.609Z,48.0
2022-11-16T07:09:04.588Z,48.0
2022-11-16T07:10:04.601Z,48.0
2022-11-16T07:11:04.602Z,48.0
2022-11-16T07:12:04.623Z,48.0
2022-11-16T07:13:04.588Z,48.0
2022-11-16T07:14:04.607Z,48.0
2022-11-16T07:15:04.592Z,48.0
2022-11-16T07:16:04.603Z,48.0
2022-11-16T07:17:09.292Z,48.0
2022-11-16T07:18:04.626Z,48.0
2022-11-16T07:19:04.593Z,48.0
2022-11-16T07:20:04.605Z,48.0
2022-11-16T07:21:04.603Z,48.0
2022-11-16T07:22:04.624Z,48.0
2022-11-16T07:23:04.612Z,48.0
2022-11-16T07:24:04.632Z,48.0
2022-11-16T07:25:04.608Z,48.0
2022-11-16T07:26:04.614Z,48.0
2022-11-16T07:27:04.599Z,48.0
2022-11-16T07:28:04.612Z,48.0
2022-11-16T07:29:04.604Z,48.0
2022-11-16T07:30:04.631Z,48.0
2022-11-16T07:31:04.602Z,48.0
2022-11-16T07:32:04.627Z,48.0
2022-11-16T07:33:04.617Z,48.0
2022-11-16T07:34:04.599Z,48.0
2022-11-16T07:35:04.603Z,48.0
2022-11-16T07:36:04.639Z,48.0
2022-11-16T07:37:04.599Z,48.0
2022-11-16T07:38:04.614Z,48.0
2022-11-16T07:39:04.610Z,48.1
2022-11-16T07:40:04.621Z,48.0
2022-11-16T07:41:04.602Z,48.0
2022-11-16T07:42:04.654Z,48.1
2022-11-16T07:43:04.607Z,48.1
2022-11-16T07:44:07.327Z,48.1
2022-11-16T07:45:04.610Z,48.1
2022-11-16T07:46:45.179Z,48.2
2022-11-16T07:47:04.623Z,48.9
2022-11-16T07:48:04.642Z,48.3
2022-11-16T07:49:09.865Z,48.3
2022-11-16T07:50:04.608Z,48.3
2022-11-16T07:51:04.606Z,48.2
2022-11-16T07:52:04.623Z,48.2
2022-11-16T07:53:04.622Z,48.2
2022-11-16T07:54:04.642Z,48.2
2022-11-16T07:55:04.610Z,48.2
2022-11-16T07:56:04.622Z,48.2
2022-11-16T07:57:04.615Z,48.1
2022-11-16T07:58:04.622Z,48.1
2022-11-16T07:59:04.622Z,48.1
2022-11-16T08:00:04.674Z,48.0
2022-11-16T08:01:04.631Z,48.0
2022-11-16T08:02:04.993Z,48.0
2022-11-16T08:03:04.615Z,48.0
2022-11-16T08:04:04.626Z,48.0
2022-11-16T08:05:04.621Z,47.9
2022-11-16T08:06:04.719Z,48.0
2022-11-16T08:07:04.648Z,47.9
2022-11-16T08:08:04.623Z,47.9
2022-11-16T08:09:04.614Z,47.9
2022-11-16T08:10:04.712Z,47.9
2022-11-16T08:11:04.613Z,47.9
2022-11-16T08:12:04.661Z,47.9
2022-11-16T08:13:04.616Z,47.9
2022-11-16T08:14:06.236Z,47.9
2022-11-16T08:15:04.619Z,47.9
2022-11-16T08:16:04.649Z,47.9
2022-11-16T08:17:04.611Z,47.9
2022-11-16T08:18:04.628Z,47.9
2022-11-16T08:19:04.642Z,47.9
2022-11-16T08:20:04.624Z,47.9
2022-11-16T08:21:04.628Z,47.9
2022-11-16T08:22:04.656Z,48.0
2022-11-16T08:23:04.620Z,47.9
2022-11-16T08:24:04.621Z,47.9
2022-11-16T08:25:04.633Z,47.9
2022-11-16T08:26:04.623Z,47.9
2022-11-16T08:27:04.636Z,48.0
2022-11-16T08:28:04.719Z,47.9
2022-11-16T08:29:05.104Z,47.9
2022-11-16T08:30:04.865Z,47.9
2022-11-16T08:31:05.500Z,47.9
2022-11-16T08:32:04.632Z,47.9
2022-11-16T08:33:04.615Z,47.9
2022-11-16T08:34:04.657Z,47.9
2022-11-16T08:35:04.619Z,47.9
2022-11-16T08:36:08.140Z,47.9
2022-11-16T08:37:04.615Z,47.9
2022-11-16T08:38:04.628Z,48.0
2022-11-16T08:39:04.622Z,48.0
2022-11-16T08:40:04.658Z,48.0
2022-11-16T08:41:04.651Z,47.9
2022-11-16T08:42:04.650Z,48.0
2022-11-16T08:43:04.632Z,48.0
2022-11-16T08:44:04.631Z,47.9
2022-11-16T08:45:04.628Z,48.0
2022-11-16T08:46:04.662Z,48.0
2022-11-16T08:47:04.651Z,48.0
2022-11-16T08:48:04.653Z,48.0
2022-11-16T08:49:04.622Z,48.0
2022-11-16T08:50:04.641Z,48.0
2022-11-16T08:51:16.838Z,48.0
2022-11-16T08:52:04.632Z,48.1
2022-11-16T08:53:04.666Z,48.0
2022-11-16T08:54:04.694Z,48.0
2022-11-16T08:55:04.632Z,48.0
2022-11-16T08:56:04.635Z,48.0
2022-11-16T08:57:04.640Z,48.0
2022-11-16T08:58:04.645Z,48.0
2022-11-16T08:59:04.666Z,48.0
2022-11-16T09:00:04.628Z,48.0
2022-11-16T09:01:04.635Z,48.0
2022-11-16T09:02:04.686Z,48.0
2022-11-16T09:03:04.665Z,48.0
2022-11-16T09:04:04.676Z,48.0
2022-11-16T09:05:04.662Z,48.1
2022-11-16T09:06:04.680Z,48.1
2022-11-16T09:07:04.860Z,48.1
2022-11-16T09:08:04.645Z,48.1
2022-11-16T09:09:04.666Z,48.1
2022-11-16T09:10:04.639Z,48.0
2022-11-16T09:11:04.631Z,48.0
2022-11-16T09:12:04.638Z,48.0
2022-11-16T09:13:04.639Z,48.0
2022-11-16T09:14:04.642Z,48.0
2022-11-16T09:15:04.901Z,48.0
2022-11-16T09:16:04.634Z,48.0
2022-11-16T09:17:04.636Z,48.0
2022-11-16T09:18:04.634Z,47.9
2022-11-16T09:19:04.635Z,47.9
2022-11-16T09:20:04.679Z,47.9
2022-11-16T09:21:04.642Z,47.9
2022-11-16T09:22:04.819Z,47.9
2022-11-16T09:23:04.745Z,47.9
2022-11-16T09:24:04.743Z,47.9
2022-11-16T09:25:04.685Z,47.9
2022-11-16T09:26:26.262Z,47.9
2022-11-16T09:27:04.665Z,48.1
2022-11-16T09:28:04.639Z,48.0
2022-11-16T09:29:04.644Z,48.0
2022-11-16T09:30:04.714Z,48.0
2022-11-16T09:31:04.653Z,48.0
2022-11-16T09:32:04.643Z,48.0
2022-11-16T09:33:04.642Z,48.0
2022-11-16T09:34:04.682Z,47.9
2022-11-16T09:35:04.670Z,47.9
2022-11-16T09:36:05.195Z,47.9
2022-11-16T09:37:04.657Z,47.9
2022-11-16T09:38:04.640Z,47.9
2022-11-16T09:39:30.573Z,47.9
2022-11-16T09:40:04.673Z,48.1
2022-11-16T09:41:04.722Z,48.0
2022-11-16T09:42:04.652Z,48.0
2022-11-16T09:43:04.656Z,47.9
2022-11-16T09:44:04.648Z,47.9
2022-11-16T09:45:04.910Z,47.9
2022-11-16T09:46:05.264Z,47.9
2022-11-16T09:47:04.648Z,47.9
2022-11-16T09:48:04.808Z,47.9
2022-11-16T09:49:04.899Z,48.0
2022-11-16T09:50:06.479Z,48.0
2022-11-16T09:51:04.667Z,48.0
2022-11-16T09:52:04.677Z,48.0
2022-11-16T09:53:04.758Z,48.0
2022-11-16T09:54:04.762Z,47.9
2022-11-16T09:55:04.755Z,48.0
2022-11-16T09:56:04.676Z,48.0
2022-11-16T09:57:09.402Z,48.0
2022-11-16T09:58:04.649Z,48.0
2022-11-16T09:59:04.644Z,48.0
2022-11-16T10:00:04.731Z,48.0
2022-11-16T10:01:04.761Z,48.0
2022-11-16T10:02:04.671Z,48.0
2022-11-16T10:03:04.657Z,48.0
2022-11-16T10:04:04.644Z,48.0
2022-11-16T10:05:04.658Z,48.0
2022-11-16T10:06:04.663Z,47.9
2022-11-16T10:07:04.693Z,47.9
2022-11-16T10:08:04.686Z,47.9
2022-11-16T10:09:04.666Z,47.9
2022-11-16T10:10:04.667Z,47.9
2022-11-16T10:11:05.577Z,47.9
2022-11-16T10:12:04.654Z,47.9
2022-11-16T10:13:04.658Z,47.9
2022-11-16T10:14:04.737Z,47.9
2022-11-16T10:15:04.671Z,47.9
2022-11-16T10:16:04.647Z,47.9
2022-11-16T10:17:04.667Z,47.9
2022-11-16T10:18:04.677Z,47.9
2022-11-16T10:19:04.665Z,47.9
2022-11-16T10:20:04.680Z,47.9
2022-11-16T10:21:04.915Z,47.9
2022-11-16T10:22:04.656Z,47.9
2022-11-16T10:23:04.659Z,47.9
2022-11-16T10:25:38.718Z,49.2
2022-11-16T10:26:03.841Z,48.3
2022-11-16T10:27:03.805Z,48.0
2022-11-16T10:28:03.794Z,47.9
2022-11-16T10:29:03.796Z,47.9
2022-11-16T10:30:03.764Z,47.9
2022-11-16T10:31:03.805Z,47.9
2022-11-16T10:32:03.797Z,47.9
2022-11-16T10:33:09.667Z,47.9
2022-11-16T10:34:03.771Z,47.9
2022-11-16T10:35:03.779Z,47.9
2022-11-16T10:36:03.770Z,47.9
2022-11-16T10:37:03.829Z,47.9
2022-11-16T10:38:03.799Z,47.9
2022-11-16T10:39:03.840Z,47.9
2022-11-16T10:40:10.487Z,48.0
2022-11-16T10:41:07.225Z,47.9
2022-11-16T10:42:07.427Z,47.9
2022-11-16T10:43:04.216Z,47.9
2022-11-16T10:44:04.228Z,47.9
2022-11-16T10:45:04.191Z,47.9
2022-11-16T10:46:04.196Z,47.9
2022-11-16T10:47:05.495Z,47.9
2022-11-16T10:48:06.930Z,47.9
2022-11-16T10:49:04.237Z,48.0
2022-11-16T10:50:04.199Z,48.0
2022-11-16T10:51:04.196Z,48.0
2022-11-16T10:52:04.349Z,47.9
2022-11-16T10:53:05.617Z,47.9
2022-11-16T10:54:06.434Z,47.9
2022-11-16T10:55:04.405Z,47.9
2022-11-16T10:56:04.197Z,47.9
2022-11-16T10:57:04.201Z,47.9
2022-11-16T10:58:05.695Z,47.9
2022-11-16T10:59:05.014Z,47.9
2022-11-16T11:00:06.643Z,47.9
2022-11-16T11:01:04.570Z,47.9
2022-11-16T11:02:04.213Z,47.9
2022-11-16T11:03:04.215Z,47.9
2022-11-16T11:04:05.428Z,47.9
2022-11-16T11:05:04.201Z,47.9
2022-11-16T11:06:04.203Z,47.9
2022-11-16T11:07:04.255Z,47.9
2022-11-16T11:08:04.202Z,47.9
2022-11-16T11:09:04.205Z,47.9
2022-11-16T11:10:04.260Z,47.9
2022-11-16T11:11:04.217Z,47.8
2022-11-16T11:12:04.206Z,47.9
2022-11-16T11:13:04.206Z,47.8
2022-11-16T11:14:04.223Z,47.9
2022-11-16T11:15:04.251Z,47.8
2022-11-16T11:16:04.251Z,47.8
2022-11-16T11:17:05.228Z,47.8
2022-11-16T11:18:04.262Z,47.8
2022-11-16T11:19:05.442Z,47.8
2022-11-16T11:20:04.230Z,47.9
2022-11-16T11:21:04.207Z,47.9
2022-11-16T11:22:04.252Z,47.9
2022-11-16T11:23:04.283Z,47.9
2022-11-16T11:24:37.436Z,47.9
2022-11-16T11:25:04.225Z,48.4
2022-11-16T11:26:04.266Z,48.0
2022-11-16T11:27:04.219Z,48.0
2022-11-16T11:28:04.255Z,47.9
2022-11-16T11:29:04.209Z,47.9
2022-11-16T11:30:04.208Z,47.9
2022-11-16T11:31:04.222Z,48.0
2022-11-16T11:32:04.214Z,47.9
2022-11-16T11:33:04.217Z,47.9
2022-11-16T11:34:04.264Z,47.9
2022-11-16T11:35:04.207Z,47.9
2022-11-16T11:37:35.104Z,49.2
2022-11-16T11:38:08.048Z,48.3
2022-11-16T11:39:03.893Z,48.1
2022-11-16T11:40:03.867Z,48.0
2022-11-16T11:41:03.827Z,48.0
2022-11-16T11:42:03.834Z,48.0
2022-11-16T11:43:03.834Z,47.9
2022-11-16T11:44:03.826Z,47.9
2022-11-16T11:45:03.829Z,47.9
2022-11-16T11:46:03.859Z,47.9
2022-11-16T11:47:42.768Z,47.9
2022-11-16T11:48:03.836Z,48.7
2022-11-16T11:49:03.834Z,48.0
2022-11-16T11:50:04.453Z,47.9
2022-11-16T11:51:03.844Z,47.9
2022-11-16T11:52:03.863Z,47.9
2022-11-16T11:53:03.835Z,47.9
2022-11-16T11:54:03.872Z,47.9
2022-11-16T11:55:03.832Z,47.8
2022-11-16T11:56:03.862Z,47.8
2022-11-16T11:57:03.903Z,47.8
2022-11-16T11:58:03.868Z,47.8
2022-11-16T11:59:03.950Z,47.8
2022-11-16T12:00:03.962Z,47.8
2022-11-16T12:01:03.840Z,47.8
2022-11-16T12:02:03.829Z,47.8
2022-11-16T12:03:04.853Z,47.8
2022-11-16T12:04:03.973Z,47.8
2022-11-16T12:05:04.016Z,47.8
2022-11-16T12:06:03.997Z,47.8
2022-11-16T12:07:04.036Z,47.8
2022-11-16T12:08:03.934Z,47.8
2022-11-16T12:09:03.966Z,47.8
2022-11-16T12:10:03.959Z,47.8
2022-11-16T12:11:03.966Z,47.8
2022-11-16T12:12:03.836Z,47.8
2022-11-16T12:13:03.918Z,47.8
2022-11-16T12:14:03.945Z,47.8
2022-11-16T12:15:03.841Z,47.8
2022-11-16T12:16:03.933Z,47.8
2022-11-16T12:17:03.940Z,47.8
2022-11-16T12:18:03.894Z,47.8
2022-11-16T12:19:03.886Z,47.9
2022-11-16T12:20:03.908Z,47.9
2022-11-16T12:21:03.871Z,47.8
2022-11-16T12:22:03.923Z,47.9
2022-11-16T12:23:04.317Z,47.9
2022-11-16T12:24:03.888Z,47.9
2022-11-16T12:25:03.901Z,47.9
2022-11-16T12:26:03.922Z,47.9
2022-11-16T12:27:03.856Z,47.9
2022-11-16T12:28:03.996Z,47.8
2022-11-16T12:29:03.880Z,47.9
2022-11-16T12:30:03.890Z,47.8
2022-11-16T12:31:03.860Z,47.9
2022-11-16T12:32:03.893Z,47.8
2022-11-16T12:33:03.970Z,47.8
2022-11-16T12:34:03.852Z,47.8
2022-11-16T12:35:03.877Z,47.8
2022-11-16T12:36:03.940Z,47.8
2022-11-16T12:37:03.874Z,47.8
2022-11-16T12:38:03.864Z,47.8
2022-11-16T12:39:03.851Z,47.8
2022-11-16T12:40:03.858Z,47.8
2022-11-16T12:41:03.878Z,47.7
2022-11-16T12:42:04.217Z,47.7
2022-11-16T12:43:03.840Z,47.7
2022-11-16T12:44:04.197Z,47.7
2022-11-16T12:45:03.891Z,47.7
2022-11-16T12:46:03.896Z,47.7
2022-11-16T12:47:03.891Z,47.7
2022-11-16T12:48:03.907Z,47.7
2022-11-16T12:49:03.878Z,47.7
2022-11-16T12:50:03.892Z,47.7
2022-11-16T12:51:03.928Z,47.7
2022-11-16T12:52:03.874Z,47.7
2022-11-16T12:53:04.865Z,47.7
2022-11-16T12:54:04.009Z,47.7
2022-11-16T12:55:25.304Z,47.7
2022-11-16T12:56:03.900Z,47.9
2022-11-16T12:57:03.925Z,47.7
2022-11-16T12:58:04.183Z,47.7
2022-11-16T12:59:03.887Z,47.7
2022-11-16T13:00:16.294Z,47.7
2022-11-16T13:01:03.987Z,47.8
2022-11-16T13:02:03.920Z,47.7
2022-11-16T13:03:03.941Z,47.7
2022-11-16T13:04:03.873Z,47.7
2022-11-16T13:05:03.877Z,47.7
2022-11-16T13:06:04.409Z,47.7
2022-11-16T13:07:09.372Z,47.7
2022-11-16T13:08:03.930Z,47.7
2022-11-16T13:09:03.896Z,47.7
2022-11-16T13:10:03.937Z,47.7
2022-11-16T13:11:03.921Z,47.7
2022-11-16T13:12:03.932Z,47.8
2022-11-16T13:13:35.404Z,47.8
2022-11-16T13:14:03.865Z,48.2
2022-11-16T13:15:03.859Z,47.9
2022-11-16T13:16:03.893Z,47.9
2022-11-16T13:17:03.904Z,47.9
2022-11-16T13:18:03.935Z,47.9
2022-11-16T13:19:03.921Z,47.9
2022-11-16T13:20:03.871Z,47.8
2022-11-16T13:21:03.863Z,47.9
2022-11-16T13:22:03.871Z,47.9